EmailTwitter


Observations de surface / France / LFBP (07610)

Régions: Québec | Canada | États-Unis | Europe | France | UK | Ailleurs
Station
Affichage
Infos & localisation pour LFBP (07610) | Aide pour décoder les METARs

Observations prises le 2018-10-23 à 03H30 UTC à PONT-LONG-UZEIN/, FR (LFBP)

Etat du ciel: quelques nuages.

Température: 10.0 Celsius

Point de rosée: 9.0 Celsius

Humidité relative: 93%

Vents: Sud-est à 9 km/h ou 5 noeuds.

Pression au niveau moyen de la mer: 102.90 kilopascals.

Visibilité horizontale: 6.21 milles terrestres ou 9.94 kilomètres.

Observation METAR:

LFBP 230330Z AUTO 15005KT 9999 FEW011 10/09 Q1029 TEMPO 2000 BR BKN005=